sensor_id;sensor_type;location;lat;lon;timestamp;temperature;humidity
5027;DHT22;2532;52.480;13.354;2023-06-22T04:02:03;23.10;97.80
5027;DHT22;2532;52.480;13.354;2023-06-22T04:04:32;23.20;97.90
5027;DHT22;2532;52.480;13.354;2023-06-22T04:07:06;23.20;98.10
5027;DHT22;2532;52.480;13.354;2023-06-22T04:09:45;23.20;98.10
5027;DHT22;2532;52.480;13.354;2023-06-22T04:12:14;23.20;98.10
5027;DHT22;2532;52.480;13.354;2023-06-22T04:14:43;23.20;98.10
5027;DHT22;2532;52.480;13.354;2023-06-22T04:17:11;23.20;98.10
5027;DHT22;2532;52.480;13.354;2023-06-22T04:19:39;23.10;97.90
5027;DHT22;2532;52.480;13.354;2023-06-22T04:22:06;23.20;97.90
5027;DHT22;2532;52.480;13.354;2023-06-22T04:24:33;23.20;97.70
5027;DHT22;2532;52.480;13.354;2023-06-22T04:27:00;23.10;97.50
5027;DHT22;2532;52.480;13.354;2023-06-22T04:29:28;23.20;97.10
5027;DHT22;2532;52.480;13.354;2023-06-22T04:31:56;23.20;97.00
5027;DHT22;2532;52.480;13.354;2023-06-22T04:34:25;23.30;97.00
5027;DHT22;2532;52.480;13.354;2023-06-22T04:36:52;23.30;97.00
5027;DHT22;2532;52.480;13.354;2023-06-22T04:39:19;23.20;96.80
5027;DHT22;2532;52.480;13.354;2023-06-22T04:41:47;23.30;96.80
5027;DHT22;2532;52.480;13.354;2023-06-22T04:44:14;23.30;96.80
5027;DHT22;2532;52.480;13.354;2023-06-22T04:46:49;23.30;96.90
5027;DHT22;2532;52.480;13.354;2023-06-22T04:49:20;23.30;96.90
5027;DHT22;2532;52.480;13.354;2023-06-22T04:51:49;23.30;97.00
5027;DHT22;2532;52.480;13.354;2023-06-22T04:54:17;23.40;97.10
5027;DHT22;2532;52.480;13.354;2023-06-22T04:56:44;23.40;97.00
5027;DHT22;2532;52.480;13.354;2023-06-22T04:59:12;23.50;96.80
5027;DHT22;2532;52.480;13.354;2023-06-22T05:01:39;23.50;96.60
5027;DHT22;2532;52.480;13.354;2023-06-22T05:04:06;23.60;96.60
5027;DHT22;2532;52.480;13.354;2023-06-22T05:06:33;23.60;96.20
5027;DHT22;2532;52.480;13.354;2023-06-22T05:09:01;23.60;96.10
5027;DHT22;2532;52.480;13.354;2023-06-22T05:11:30;23.70;96.10
5027;DHT22;2532;52.480;13.354;2023-06-22T05:13:57;23.70;96.00
5027;DHT22;2532;52.480;13.354;2023-06-22T05:16:24;23.70;95.90
5027;DHT22;2532;52.480;13.354;2023-06-22T05:18:52;23.80;95.80
5027;DHT22;2532;52.480;13.354;2023-06-22T05:21:22;23.80;95.60
5027;DHT22;2532;52.480;13.354;2023-06-22T05:23:49;23.90;95.40
5027;DHT22;2532;52.480;13.354;2023-06-22T05:26:18;23.90;95.40
5027;DHT22;2532;52.480;13.354;2023-06-22T05:28:46;24.00;95.20
5027;DHT22;2532;52.480;13.354;2023-06-22T05:31:13;24.00;95.20
5027;DHT22;2532;52.480;13.354;2023-06-22T05:33:40;24.00;95.50
5027;DHT22;2532;52.480;13.354;2023-06-22T05:36:08;24.10;95.20
5027;DHT22;2532;52.480;13.354;2023-06-22T05:38:35;24.10;95.00
5027;DHT22;2532;52.480;13.354;2023-06-22T05:41:02;24.20;94.90
5027;DHT22;2532;52.480;13.354;2023-06-22T05:43:30;24.20;94.90
5027;DHT22;2532;52.480;13.354;2023-06-22T05:45:58;24.20;94.90
5027;DHT22;2532;52.480;13.354;2023-06-22T05:48:25;24.20;94.60
5027;DHT22;2532;52.480;13.354;2023-06-22T05:50:52;24.30;94.40
5027;DHT22;2532;52.480;13.354;2023-06-22T05:53:19;24.40;94.10
5027;DHT22;2532;52.480;13.354;2023-06-22T05:55:47;24.40;93.80
5027;DHT22;2532;52.480;13.354;2023-06-22T05:58:13;24.40;93.90
5027;DHT22;2532;52.480;13.354;2023-06-22T06:00:42;24.40;93.70
5027;DHT22;2532;52.480;13.354;2023-06-22T06:03:10;24.40;93.70
5027;DHT22;2532;52.480;13.354;2023-06-22T06:05:37;24.40;93.40
5027;DHT22;2532;52.480;13.354;2023-06-22T06:08:06;24.40;93.50
5027;DHT22;2532;52.480;13.354;2023-06-22T06:10:33;24.50;93.40
5027;DHT22;2532;52.480;13.354;2023-06-22T06:13:00;24.50;93.50
5027;DHT22;2532;52.480;13.354;2023-06-22T06:15:30;24.50;93.60
5027;DHT22;2532;52.480;13.354;2023-06-22T06:17:59;24.60;93.60
5027;DHT22;2532;52.480;13.354;2023-06-22T06:20:26;24.60;93.70
5027;DHT22;2532;52.480;13.354;2023-06-22T06:22:54;24.60;93.80
5027;DHT22;2532;52.480;13.354;2023-06-22T06:25:22;24.60;93.80
5027;DHT22;2532;52.480;13.354;2023-06-22T06:27:50;24.70;93.70
5027;DHT22;2532;52.480;13.354;2023-06-22T06:30:20;24.80;93.50
5027;DHT22;2532;52.480;13.354;2023-06-22T06:32:47;24.80;93.40
5027;DHT22;2532;52.480;13.354;2023-06-22T06:35:15;24.80;93.10
5027;DHT22;2532;52.480;13.354;2023-06-22T06:37:44;24.80;92.80
5027;DHT22;2532;52.480;13.354;2023-06-22T06:40:13;24.90;92.90
5027;DHT22;2532;52.480;13.354;2023-06-22T06:42:41;25.00;92.80
5027;DHT22;2532;52.480;13.354;2023-06-22T06:45:10;25.10;92.60
5027;DHT22;2532;52.480;13.354;2023-06-22T06:47:38;25.10;92.60
5027;DHT22;2532;52.480;13.354;2023-06-22T06:50:06;25.30;91.90
5027;DHT22;2532;52.480;13.354;2023-06-22T06:52:35;25.30;91.40
5027;DHT22;2532;52.480;13.354;2023-06-22T06:55:02;25.40;92.10
5027;DHT22;2532;52.480;13.354;2023-06-22T06:57:30;25.50;91.30
5027;DHT22;2532;52.480;13.354;2023-06-22T06:59:58;25.50;91.10
5027;DHT22;2532;52.480;13.354;2023-06-22T07:02:26;25.50;90.60
5027;DHT22;2532;52.480;13.354;2023-06-22T07:04:53;25.60;90.50
5027;DHT22;2532;52.480;13.354;2023-06-22T07:07:21;25.60;90.90
5027;DHT22;2532;52.480;13.354;2023-06-22T07:09:50;25.60;91.00
5027;DHT22;2532;52.480;13.354;2023-06-22T07:12:17;25.60;90.40
5027;DHT22;2532;52.480;13.354;2023-06-22T07:14:44;25.70;90.00
5027;DHT22;2532;52.480;13.354;2023-06-22T07:17:10;25.80;89.20
5027;DHT22;2532;52.480;13.354;2023-06-22T07:19:38;25.80;89.10
5027;DHT22;2532;52.480;13.354;2023-06-22T07:22:05;25.90;88.50
5027;DHT22;2532;52.480;13.354;2023-06-22T07:24:32;26.00;87.10
5027;DHT22;2532;52.480;13.354;2023-06-22T07:27:01;26.00;87.00
5027;DHT22;2532;52.480;13.354;2023-06-22T07:29:29;26.00;86.10
5027;DHT22;2532;52.480;13.354;2023-06-22T07:32:00;26.10;84.60
5027;DHT22;2532;52.480;13.354;2023-06-22T07:34:30;26.20;83.60
5027;DHT22;2532;52.480;13.354;2023-06-22T07:36:57;26.20;83.50
5027;DHT22;2532;52.480;13.354;2023-06-22T07:39:24;26.30;82.20
5027;DHT22;2532;52.480;13.354;2023-06-22T07:41:52;26.30;81.30
5027;DHT22;2532;52.480;13.354;2023-06-22T07:44:20;26.30;82.50
5027;DHT22;2532;52.480;13.354;2023-06-22T07:46:47;26.40;83.10
5027;DHT22;2532;52.480;13.354;2023-06-22T07:49:14;26.50;81.20
5027;DHT22;2532;52.480;13.354;2023-06-22T07:51:40;26.60;80.00
5027;DHT22;2532;52.480;13.354;2023-06-22T07:54:08;26.70;80.70
5027;DHT22;2532;52.480;13.354;2023-06-22T07:56:36;26.70;79.20
5027;DHT22;2532;52.480;13.354;2023-06-22T07:59:03;26.80;79.60
5027;DHT22;2532;52.480;13.354;2023-06-22T08:01:32;27.00;80.50
5027;DHT22;2532;52.480;13.354;2023-06-22T08:03:58;27.10;82.70
5027;DHT22;2532;52.480;13.354;2023-06-22T08:06:25;27.20;81.80
5027;DHT22;2532;52.480;13.354;2023-06-22T08:08:52;27.40;80.60
5027;DHT22;2532;52.480;13.354;2023-06-22T08:11:22;27.50;79.50
5027;DHT22;2532;52.480;13.354;2023-06-22T08:13:50;27.60;79.70
5027;DHT22;2532;52.480;13.354;2023-06-22T08:16:17;27.70;77.10
5027;DHT22;2532;52.480;13.354;2023-06-22T08:18:46;27.70;74.30
5027;DHT22;2532;52.480;13.354;2023-06-22T08:21:12;27.70;73.90
5027;DHT22;2532;52.480;13.354;2023-06-22T08:23:39;27.70;74.40
5027;DHT22;2532;52.480;13.354;2023-06-22T08:26:06;27.70;75.40
5027;DHT22;2532;52.480;13.354;2023-06-22T08:28:33;27.60;75.70
5027;DHT22;2532;52.480;13.354;2023-06-22T08:31:01;27.60;75.70
5027;DHT22;2532;52.480;13.354;2023-06-22T08:33:28;27.60;76.40
5027;DHT22;2532;52.480;13.354;2023-06-22T08:35:58;27.50;77.00
5027;DHT22;2532;52.480;13.354;2023-06-22T08:38:25;27.50;77.00
5027;DHT22;2532;52.480;13.354;2023-06-22T08:40:52;27.50;77.00
5027;DHT22;2532;52.480;13.354;2023-06-22T08:43:19;27.40;77.10
5027;DHT22;2532;52.480;13.354;2023-06-22T08:45:46;27.40;76.30
5027;DHT22;2532;52.480;13.354;2023-06-22T08:48:13;27.40;77.00
5027;DHT22;2532;52.480;13.354;2023-06-22T08:50:40;27.40;76.90
5027;DHT22;2532;52.480;13.354;2023-06-22T08:53:09;27.50;76.20
5027;DHT22;2532;52.480;13.354;2023-06-22T08:55:35;27.60;76.40
5027;DHT22;2532;52.480;13.354;2023-06-22T08:58:02;27.60;75.70
5027;DHT22;2532;52.480;13.354;2023-06-22T09:00:30;27.60;75.70
5027;DHT22;2532;52.480;13.354;2023-06-22T09:03:00;27.70;76.00
5027;DHT22;2532;52.480;13.354;2023-06-22T09:05:27;27.80;75.50
5027;DHT22;2532;52.480;13.354;2023-06-22T09:07:57;27.80;75.90
5027;DHT22;2532;52.480;13.354;2023-06-22T09:10:26;27.90;74.80
5027;DHT22;2532;52.480;13.354;2023-06-22T09:12:53;28.00;74.40
5027;DHT22;2532;52.480;13.354;2023-06-22T09:15:20;28.00;72.80
5027;DHT22;2532;52.480;13.354;2023-06-22T09:17:47;28.10;73.40
5027;DHT22;2532;52.480;13.354;2023-06-22T09:20:14;28.20;72.80
5027;DHT22;2532;52.480;13.354;2023-06-22T09:22:42;28.30;71.70
5027;DHT22;2532;52.480;13.354;2023-06-22T09:25:09;28.40;68.70
5027;DHT22;2532;52.480;13.354;2023-06-22T09:27:37;28.40;68.40
5027;DHT22;2532;52.480;13.354;2023-06-22T09:30:06;28.50;67.10
5027;DHT22;2532;52.480;13.354;2023-06-22T09:32:33;28.50;70.30
5027;DHT22;2532;52.480;13.354;2023-06-22T09:35:04;28.60;68.30
5027;DHT22;2532;52.480;13.354;2023-06-22T09:37:32;28.60;66.00
5027;DHT22;2532;52.480;13.354;2023-06-22T09:39:59;28.70;69.60
5027;DHT22;2532;52.480;13.354;2023-06-22T09:42:26;28.70;68.40
5027;DHT22;2532;52.480;13.354;2023-06-22T09:44:54;28.80;66.90
5027;DHT22;2532;52.480;13.354;2023-06-22T09:47:21;28.80;66.10
5027;DHT22;2532;52.480;13.354;2023-06-22T09:49:48;28.80;65.10
5027;DHT22;2532;52.480;13.354;2023-06-22T09:52:15;28.80;64.90
5027;DHT22;2532;52.480;13.354;2023-06-22T09:54:43;28.80;65.70
5027;DHT22;2532;52.480;13.354;2023-06-22T09:57:10;28.80;66.40
5027;DHT22;2532;52.480;13.354;2023-06-22T09:59:37;28.80;68.50
5027;DHT22;2532;52.480;13.354;2023-06-22T10:02:07;28.80;67.60
5027;DHT22;2532;52.480;13.354;2023-06-22T10:04:34;28.80;67.50
5027;DHT22;2532;52.480;13.354;2023-06-22T10:07:01;28.80;68.20
5027;DHT22;2532;52.480;13.354;2023-06-22T10:09:29;28.80;69.10
5027;DHT22;2532;52.480;13.354;2023-06-22T10:11:56;28.90;68.30
5027;DHT22;2532;52.480;13.354;2023-06-22T10:14:23;29.00;67.80
5027;DHT22;2532;52.480;13.354;2023-06-22T10:16:52;29.00;68.30
5027;DHT22;2532;52.480;13.354;2023-06-22T10:19:26;29.00;67.90
5027;DHT22;2532;52.480;13.354;2023-06-22T10:21:53;29.00;67.30
5027;DHT22;2532;52.480;13.354;2023-06-22T10:24:20;29.00;67.60
5027;DHT22;2532;52.480;13.354;2023-06-22T10:26:48;29.10;68.70
5027;DHT22;2532;52.480;13.354;2023-06-22T10:29:15;29.00;66.90
5027;DHT22;2532;52.480;13.354;2023-06-22T10:31:41;29.10;67.20
5027;DHT22;2532;52.480;13.354;2023-06-22T10:34:08;28.90;66.50
5027;DHT22;2532;52.480;13.354;2023-06-22T10:36:37;28.90;67.20
5027;DHT22;2532;52.480;13.354;2023-06-22T10:39:03;28.90;66.90
5027;DHT22;2532;52.480;13.354;2023-06-22T10:41:31;28.90;68.20
5027;DHT22;2532;52.480;13.354;2023-06-22T10:43:58;28.90;67.60
5027;DHT22;2532;52.480;13.354;2023-06-22T10:46:25;29.00;66.80
5027;DHT22;2532;52.480;13.354;2023-06-22T10:48:56;29.10;65.70
5027;DHT22;2532;52.480;13.354;2023-06-22T10:51:24;29.10;65.50
5027;DHT22;2532;52.480;13.354;2023-06-22T10:53:54;29.10;66.10
5027;DHT22;2532;52.480;13.354;2023-06-22T10:56:21;29.10;65.10
5027;DHT22;2532;52.480;13.354;2023-06-22T10:58:48;29.30;67.10
5027;DHT22;2532;52.480;13.354;2023-06-22T11:01:23;29.30;65.50
5027;DHT22;2532;52.480;13.354;2023-06-22T11:03:50;29.30;67.00
5027;DHT22;2532;52.480;13.354;2023-06-22T11:06:19;29.40;63.20
5027;DHT22;2532;52.480;13.354;2023-06-22T11:08:45;29.50;63.00
5027;DHT22;2532;52.480;13.354;2023-06-22T11:11:14;29.40;66.60
5027;DHT22;2532;52.480;13.354;2023-06-22T11:13:43;29.50;64.10
5027;DHT22;2532;52.480;13.354;2023-06-22T11:16:12;29.60;63.20
5027;DHT22;2532;52.480;13.354;2023-06-22T11:18:46;29.70;64.70
5027;DHT22;2532;52.480;13.354;2023-06-22T11:21:13;29.80;65.10
5027;DHT22;2532;52.480;13.354;2023-06-22T11:23:42;29.90;65.00
5027;DHT22;2532;52.480;13.354;2023-06-22T11:26:09;30.00;62.40
5027;DHT22;2532;52.480;13.354;2023-06-22T11:28:37;30.10;62.80
5027;DHT22;2532;52.480;13.354;2023-06-22T11:31:04;30.10;61.00
5027;DHT22;2532;52.480;13.354;2023-06-22T11:33:32;30.10;61.80
5027;DHT22;2532;52.480;13.354;2023-06-22T11:35:59;30.20;62.00
5027;DHT22;2532;52.480;13.354;2023-06-22T11:38:26;30.30;61.50
5027;DHT22;2532;52.480;13.354;2023-06-22T11:40:53;30.30;61.50
5027;DHT22;2532;52.480;13.354;2023-06-22T11:43:20;30.40;61.50
5027;DHT22;2532;52.480;13.354;2023-06-22T11:45:48;30.50;61.40
5027;DHT22;2532;52.480;13.354;2023-06-22T11:48:16;30.60;60.40
5027;DHT22;2532;52.480;13.354;2023-06-22T11:50:43;30.70;60.40
5027;DHT22;2532;52.480;13.354;2023-06-22T11:53:09;30.70;59.80
5027;DHT22;2532;52.480;13.354;2023-06-22T11:55:36;30.70;61.70
5027;DHT22;2532;52.480;13.354;2023-06-22T11:58:03;30.70;61.70
5027;DHT22;2532;52.480;13.354;2023-06-22T12:00:31;30.70;61.00
5027;DHT22;2532;52.480;13.354;2023-06-22T12:02:59;30.60;61.10
5027;DHT22;2532;52.480;13.354;2023-06-22T12:05:26;30.60;61.60
5027;DHT22;2532;52.480;13.354;2023-06-22T12:07:54;30.60;60.00
5027;DHT22;2532;52.480;13.354;2023-06-22T12:10:21;30.60;60.20
5027;DHT22;2532;52.480;13.354;2023-06-22T12:12:48;30.70;59.90
5027;DHT22;2532;52.480;13.354;2023-06-22T12:15:15;30.80;60.50
5027;DHT22;2532;52.480;13.354;2023-06-22T12:17:42;30.80;60.40
5027;DHT22;2532;52.480;13.354;2023-06-22T12:20:11;30.90;59.40
5027;DHT22;2532;52.480;13.354;2023-06-22T12:22:38;31.00;60.30
5027;DHT22;2532;52.480;13.354;2023-06-22T12:25:05;31.00;59.00
5027;DHT22;2532;52.480;13.354;2023-06-22T12:27:32;31.10;60.80
5027;DHT22;2532;52.480;13.354;2023-06-22T12:29:59;31.10;60.30
5027;DHT22;2532;52.480;13.354;2023-06-22T12:32:26;31.10;60.90
5027;DHT22;2532;52.480;13.354;2023-06-22T12:34:53;31.20;60.70
5027;DHT22;2532;52.480;13.354;2023-06-22T12:37:21;31.20;60.50
5027;DHT22;2532;52.480;13.354;2023-06-22T12:39:48;31.30;58.90
5027;DHT22;2532;52.480;13.354;2023-06-22T12:42:15;31.30;59.60
5027;DHT22;2532;52.480;13.354;2023-06-22T12:44:43;31.40;58.80
5027;DHT22;2532;52.480;13.354;2023-06-22T12:47:10;31.30;57.80
5027;DHT22;2532;52.480;13.354;2023-06-22T12:49:37;31.20;57.70
5027;DHT22;2532;52.480;13.354;2023-06-22T12:52:09;31.20;58.20
5027;DHT22;2532;52.480;13.354;2023-06-22T12:54:38;31.10;58.20
5027;DHT22;2532;52.480;13.354;2023-06-22T12:57:05;31.00;57.90
5027;DHT22;2532;52.480;13.354;2023-06-22T12:59:32;31.00;57.70
5027;DHT22;2532;52.480;13.354;2023-06-22T13:01:59;31.00;58.40
5027;DHT22;2532;52.480;13.354;2023-06-22T13:04:26;31.10;59.30
5027;DHT22;2532;52.480;13.354;2023-06-22T13:06:53;31.20;57.80
5027;DHT22;2532;52.480;13.354;2023-06-22T13:09:20;31.00;57.60
5027;DHT22;2532;52.480;13.354;2023-06-22T13:11:48;31.00;58.10
5027;DHT22;2532;52.480;13.354;2023-06-22T13:14:15;31.00;59.80
5027;DHT22;2532;52.480;13.354;2023-06-22T13:16:42;31.00;58.60
5027;DHT22;2532;52.480;13.354;2023-06-22T13:19:09;31.00;57.90
5027;DHT22;2532;52.480;13.354;2023-06-22T13:21:36;31.00;58.00
5027;DHT22;2532;52.480;13.354;2023-06-22T13:24:04;31.10;57.60
5027;DHT22;2532;52.480;13.354;2023-06-22T13:26:32;31.10;59.40
5027;DHT22;2532;52.480;13.354;2023-06-22T13:29:00;31.10;58.20
5027;DHT22;2532;52.480;13.354;2023-06-22T13:31:27;31.10;57.90
5027;DHT22;2532;52.480;13.354;2023-06-22T13:33:54;31.10;58.10
5027;DHT22;2532;52.480;13.354;2023-06-22T13:36:21;31.20;59.00
5027;DHT22;2532;52.480;13.354;2023-06-22T13:38:48;31.20;57.70
5027;DHT22;2532;52.480;13.354;2023-06-22T13:41:15;31.20;57.60
5027;DHT22;2532;52.480;13.354;2023-06-22T13:43:42;31.20;57.70
5027;DHT22;2532;52.480;13.354;2023-06-22T13:46:11;31.20;58.10
5027;DHT22;2532;52.480;13.354;2023-06-22T13:48:37;31.30;58.10
5027;DHT22;2532;52.480;13.354;2023-06-22T13:51:05;31.30;57.70
5027;DHT22;2532;52.480;13.354;2023-06-22T13:53:31;31.40;58.20
5027;DHT22;2532;52.480;13.354;2023-06-22T13:55:58;31.40;57.50
5027;DHT22;2532;52.480;13.354;2023-06-22T13:58:25;31.40;57.70
5027;DHT22;2532;52.480;13.354;2023-06-22T14:00:52;31.40;58.10
5027;DHT22;2532;52.480;13.354;2023-06-22T14:03:20;31.40;58.10
5027;DHT22;2532;52.480;13.354;2023-06-22T14:05:47;31.50;58.30
5027;DHT22;2532;52.480;13.354;2023-06-22T14:08:14;31.60;57.70
5027;DHT22;2532;52.480;13.354;2023-06-22T14:10:41;31.80;57.60
5027;DHT22;2532;52.480;13.354;2023-06-22T14:13:08;31.90;57.20
5027;DHT22;2532;52.480;13.354;2023-06-22T14:15:34;32.00;57.20
5027;DHT22;2532;52.480;13.354;2023-06-22T14:18:01;32.10;56.90
5027;DHT22;2532;52.480;13.354;2023-06-22T14:20:29;32.00;56.70
5027;DHT22;2532;52.480;13.354;2023-06-22T14:22:56;32.00;56.90
5027;DHT22;2532;52.480;13.354;2023-06-22T14:25:23;31.90;56.80
5027;DHT22;2532;52.480;13.354;2023-06-22T14:27:50;31.80;56.90
5027;DHT22;2532;52.480;13.354;2023-06-22T14:30:17;31.90;57.10
5027;DHT22;2532;52.480;13.354;2023-06-22T14:32:44;31.90;57.30
5027;DHT22;2532;52.480;13.354;2023-06-22T14:35:11;32.10;57.00
5027;DHT22;2532;52.480;13.354;2023-06-22T14:37:40;32.10;56.40
5027;DHT22;2532;52.480;13.354;2023-06-22T14:40:07;32.00;56.80
5027;DHT22;2532;52.480;13.354;2023-06-22T14:42:34;32.00;57.40
5027;DHT22;2532;52.480;13.354;2023-06-22T14:45:01;32.10;56.60
5027;DHT22;2532;52.480;13.354;2023-06-22T14:47:28;32.10;56.60
5027;DHT22;2532;52.480;13.354;2023-06-22T14:49:55;32.10;56.50
5027;DHT22;2532;52.480;13.354;2023-06-22T14:52:22;32.10;56.80
5027;DHT22;2532;52.480;13.354;2023-06-22T14:54:50;32.10;56.80
5027;DHT22;2532;52.480;13.354;2023-06-22T14:57:18;32.20;56.50
5027;DHT22;2532;52.480;13.354;2023-06-22T14:59:45;32.20;56.50
5027;DHT22;2532;52.480;13.354;2023-06-22T15:02:12;32.30;56.60
5027;DHT22;2532;52.480;13.354;2023-06-22T15:04:39;32.20;56.30
5027;DHT22;2532;52.480;13.354;2023-06-22T15:07:06;32.20;56.10
5027;DHT22;2532;52.480;13.354;2023-06-22T15:09:33;32.30;56.10
5027;DHT22;2532;52.480;13.354;2023-06-22T15:12:02;32.30;56.80
5027;DHT22;2532;52.480;13.354;2023-06-22T15:14:31;32.50;55.90
5027;DHT22;2532;52.480;13.354;2023-06-22T15:16:58;32.60;55.70
5027;DHT22;2532;52.480;13.354;2023-06-22T15:19:25;32.50;55.80
5027;DHT22;2532;52.480;13.354;2023-06-22T15:21:51;32.50;56.10
5027;DHT22;2532;52.480;13.354;2023-06-22T15:24:18;32.50;55.60
5027;DHT22;2532;52.480;13.354;2023-06-22T15:26:45;32.40;55.50
5027;DHT22;2532;52.480;13.354;2023-06-22T15:29:13;32.30;56.20
5027;DHT22;2532;52.480;13.354;2023-06-22T15:31:40;32.20;55.70
5027;DHT22;2532;52.480;13.354;2023-06-22T15:34:07;32.10;55.90
5027;DHT22;2532;52.480;13.354;2023-06-22T15:36:34;31.90;56.30
5027;DHT22;2532;52.480;13.354;2023-06-22T15:39:01;31.90;56.40
5027;DHT22;2532;52.480;13.354;2023-06-22T15:41:28;31.90;56.20
5027;DHT22;2532;52.480;13.354;2023-06-22T15:43:55;32.00;56.40
5027;DHT22;2532;52.480;13.354;2023-06-22T15:46:23;32.10;57.10
5027;DHT22;2532;52.480;13.354;2023-06-22T15:48:50;32.40;56.50
5027;DHT22;2532;52.480;13.354;2023-06-22T15:51:17;32.60;56.50
5027;DHT22;2532;52.480;13.354;2023-06-22T15:53:44;32.90;56.10
5027;DHT22;2532;52.480;13.354;2023-06-22T15:56:11;33.00;55.90
5027;DHT22;2532;52.480;13.354;2023-06-22T15:58:38;33.20;55.20
5027;DHT22;2532;52.480;13.354;2023-06-22T16:01:06;33.10;54.70
5027;DHT22;2532;52.480;13.354;2023-06-22T16:03:35;33.00;54.70
5027;DHT22;2532;52.480;13.354;2023-06-22T16:06:04;33.00;55.00
5027;DHT22;2532;52.480;13.354;2023-06-22T16:08:31;33.00;55.60
5027;DHT22;2532;52.480;13.354;2023-06-22T16:10:59;33.00;55.10
5027;DHT22;2532;52.480;13.354;2023-06-22T16:13:26;33.10;55.30
5027;DHT22;2532;52.480;13.354;2023-06-22T16:15:53;33.10;54.90
5027;DHT22;2532;52.480;13.354;2023-06-22T16:18:19;33.00;54.90
5027;DHT22;2532;52.480;13.354;2023-06-22T16:20:48;32.90;55.30
5027;DHT22;2532;52.480;13.354;2023-06-22T16:23:15;32.90;55.30
5027;DHT22;2532;52.480;13.354;2023-06-22T16:25:42;32.80;55.40
5027;DHT22;2532;52.480;13.354;2023-06-22T16:28:10;32.70;55.70
5027;DHT22;2532;52.480;13.354;2023-06-22T16:30:37;32.50;55.90
5027;DHT22;2532;52.480;13.354;2023-06-22T16:33:04;32.50;55.90
5027;DHT22;2532;52.480;13.354;2023-06-22T16:35:31;32.50;56.10
5027;DHT22;2532;52.480;13.354;2023-06-22T16:38:00;32.60;56.00
5027;DHT22;2532;52.480;13.354;2023-06-22T16:40:27;32.60;56.20
5027;DHT22;2532;52.480;13.354;2023-06-22T16:42:54;32.60;56.00
5027;DHT22;2532;52.480;13.354;2023-06-22T16:45:21;32.60;56.30
5027;DHT22;2532;52.480;13.354;2023-06-22T16:47:50;32.40;56.30
5027;DHT22;2532;52.480;13.354;2023-06-22T16:50:18;32.20;56.30
5027;DHT22;2532;52.480;13.354;2023-06-22T16:52:45;32.00;56.60
5027;DHT22;2532;52.480;13.354;2023-06-22T16:55:14;31.70;56.90
5027;DHT22;2532;52.480;13.354;2023-06-22T16:57:41;31.40;57.50
5027;DHT22;2532;52.480;13.354;2023-06-22T17:00:09;31.20;57.80
5027;DHT22;2532;52.480;13.354;2023-06-22T17:02:42;31.00;58.80
5027;DHT22;2532;52.480;13.354;2023-06-22T17:05:10;30.90;58.30
5027;DHT22;2532;52.480;13.354;2023-06-22T17:07:39;30.80;58.60
5027;DHT22;2532;52.480;13.354;2023-06-22T17:10:14;30.80;58.80
5027;DHT22;2532;52.480;13.354;2023-06-22T17:12:41;30.70;59.10
5027;DHT22;2532;52.480;13.354;2023-06-22T17:15:12;30.70;59.60
5027;DHT22;2532;52.480;13.354;2023-06-22T17:17:39;30.60;59.70
5027;DHT22;2532;52.480;13.354;2023-06-22T17:20:07;30.60;59.40
5027;DHT22;2532;52.480;13.354;2023-06-22T17:22:34;30.60;59.40
5027;DHT22;2532;52.480;13.354;2023-06-22T17:25:04;30.50;59.80
5027;DHT22;2532;52.480;13.354;2023-06-22T17:27:34;30.40;59.60
5027;DHT22;2532;52.480;13.354;2023-06-22T17:30:06;30.30;59.90
5027;DHT22;2532;52.480;13.354;2023-06-22T17:32:33;30.30;59.90
5027;DHT22;2532;52.480;13.354;2023-06-22T17:35:00;30.20;60.10
5027;DHT22;2532;52.480;13.354;2023-06-22T17:37:32;30.00;60.00
5027;DHT22;2532;52.480;13.354;2023-06-22T17:39:59;29.90;60.40
5027;DHT22;2532;52.480;13.354;2023-06-22T17:42:28;29.70;60.50
5027;DHT22;2532;52.480;13.354;2023-06-22T17:45:01;29.70;61.00
5027;DHT22;2532;52.480;13.354;2023-06-22T17:47:28;29.60;61.90
5027;DHT22;2532;52.480;13.354;2023-06-22T17:50:04;29.60;61.50
5027;DHT22;2532;52.480;13.354;2023-06-22T17:52:31;29.60;61.60
5027;DHT22;2532;52.480;13.354;2023-06-22T17:54:57;29.50;61.80
5027;DHT22;2532;52.480;13.354;2023-06-22T17:57:30;29.40;62.00
5027;DHT22;2532;52.480;13.354;2023-06-22T18:00:03;29.50;62.10
5027;DHT22;2532;52.480;13.354;2023-06-22T18:02:36;29.40;62.00
5027;DHT22;2532;52.480;13.354;2023-06-22T18:05:05;29.40;62.30
5027;DHT22;2532;52.480;13.354;2023-06-22T18:07:33;29.30;62.20
5027;DHT22;2532;52.480;13.354;2023-06-22T18:10:02;29.30;62.40
5027;DHT22;2532;52.480;13.354;2023-06-22T18:12:29;29.20;62.20
5027;DHT22;2532;52.480;13.354;2023-06-22T18:14:56;29.20;62.50
5027;DHT22;2532;52.480;13.354;2023-06-22T18:17:25;29.20;62.50
5027;DHT22;2532;52.480;13.354;2023-06-22T18:19:53;29.10;62.70
5027;DHT22;2532;52.480;13.354;2023-06-22T18:22:21;29.10;62.90
5027;DHT22;2532;52.480;13.354;2023-06-22T18:24:49;29.00;62.80
5027;DHT22;2532;52.480;13.354;2023-06-22T18:27:16;29.00;62.90
5027;DHT22;2532;52.480;13.354;2023-06-22T18:29:43;28.90;62.80
5027;DHT22;2532;52.480;13.354;2023-06-22T18:32:11;28.80;62.90
5027;DHT22;2532;52.480;13.354;2023-06-22T18:34:40;28.80;63.20
5027;DHT22;2532;52.480;13.354;2023-06-22T18:37:10;28.70;63.20
5027;DHT22;2532;52.480;13.354;2023-06-22T18:39:40;28.70;63.40
5027;DHT22;2532;52.480;13.354;2023-06-22T18:42:09;28.70;63.40
5027;DHT22;2532;52.480;13.354;2023-06-22T18:44:41;28.70;63.40
5027;DHT22;2532;52.480;13.354;2023-06-22T18:47:09;28.60;63.30
5027;DHT22;2532;52.480;13.354;2023-06-22T18:49:47;28.60;63.20
5027;DHT22;2532;52.480;13.354;2023-06-22T18:52:15;28.50;63.30
5027;DHT22;2532;52.480;13.354;2023-06-22T18:54:43;28.50;63.30
5027;DHT22;2532;52.480;13.354;2023-06-22T18:57:16;28.50;63.60
5027;DHT22;2532;52.480;13.354;2023-06-22T18:59:47;28.40;63.50
5027;DHT22;2532;52.480;13.354;2023-06-22T19:02:34;28.40;63.50
5027;DHT22;2532;52.480;13.354;2023-06-22T19:05:15;28.40;63.60
5027;DHT22;2532;52.480;13.354;2023-06-22T19:08:01;28.30;63.70
5027;DHT22;2532;52.480;13.354;2023-06-22T19:10:30;28.30;63.90
5027;DHT22;2532;52.480;13.354;2023-06-22T19:15:40;28.20;63.90
5027;DHT22;2532;52.480;13.354;2023-06-22T19:18:14;28.10;63.80
5027;DHT22;2532;52.480;13.354;2023-06-22T19:20:43;28.10;64.10
5027;DHT22;2532;52.480;13.354;2023-06-22T19:23:28;28.00;64.20
5027;DHT22;2532;52.480;13.354;2023-06-22T19:25:56;28.00;64.30
5027;DHT22;2532;52.480;13.354;2023-06-22T19:28:24;27.90;64.30
5027;DHT22;2532;52.480;13.354;2023-06-22T19:30:53;27.90;64.40
5027;DHT22;2532;52.480;13.354;2023-06-22T19:33:21;27.80;64.30
5027;DHT22;2532;52.480;13.354;2023-06-22T19:35:50;27.80;64.40
5027;DHT22;2532;52.480;13.354;2023-06-22T19:38:17;27.80;64.30
5027;DHT22;2532;52.480;13.354;2023-06-22T19:40:44;27.80;64.20
5027;DHT22;2532;52.480;13.354;2023-06-22T19:43:12;27.70;64.00
5027;DHT22;2532;52.480;13.354;2023-06-22T19:45:40;27.70;64.20
5027;DHT22;2532;52.480;13.354;2023-06-22T19:48:08;27.70;64.30
5027;DHT22;2532;52.480;13.354;2023-06-22T19:50:36;27.60;64.30
5027;DHT22;2532;52.480;13.354;2023-06-22T19:53:08;27.50;64.40